Time;durP1;ratioP1;P1;durP2;ratioP2;P2;SDS_P1;SDS_P2;PMS_P1;PMS_P2;Temp;Humidity;BMP_temperature;BMP_pressure;BME280_temperature;BME280_humidity;BME280_pressure;Samples;Min_cycle;Max_cycle;Signal;HPM_P1;HPM_P2
2021/01/08 00:00:23;50480.00;0.17;88.02;0.00;0.00;0.62;;;;;5.90;1.00;;;;;;2226316;62;1033;-86
2021/01/08 00:02:52;294573.00;0.98;508.59;0.00;0.00;0.62;;;;;6.10;1.00;;;;;;2230329;62;1139;-85
2021/01/08 00:05:54;524457.00;1.75;903.94;89117.00;0.30;154.78;;;;;6.50;1.00;;;;;;2242403;61;1361;-85
2021/01/08 00:08:25;608350.00;2.03;1048.64;89928.00;0.30;156.18;;;;;6.70;1.00;;;;;;2245231;61;1135;-85
2021/01/08 00:10:54;590198.00;1.97;1017.30;98365.00;0.33;170.75;;;;;6.90;1.00;;;;;;2246929;61;1003;-85
2021/01/08 00:13:31;476639.00;1.59;821.61;93253.00;0.31;161.92;;;;;6.70;1.00;;;;;;2242561;61;2002;-85
2021/01/08 00:19:32;183155.00;0.61;316.92;0.00;0.00;0.62;;;;;6.50;1.00;;;;;;2241234;62;1080;-85
2021/01/08 00:22:09;23724.00;0.08;41.72;0.00;0.00;0.62;;;;;7.10;1.00;;;;;;2234762;62;1033;-85
2021/01/08 00:24:36;0.00;0.00;0.62;0.00;0.00;0.62;;;;;7.60;1.00;;;;;;2234712;62;1052;-84
2021/01/08 00:27:27;555252.00;1.85;957.01;107180.00;0.36;185.96;;;;;7.70;1.00;;;;;;2233314;62;1350;-85
2021/01/08 00:30:00;271632.00;0.91;469.15;0.00;0.00;0.62;;;;;7.70;1.00;;;;;;2244242;61;1100;-85
2021/01/08 00:32:38;211880.00;0.71;366.37;0.00;0.00;0.62;;;;;7.40;1.00;;;;;;2245143;61;1946;-85
2021/01/08 00:38:04;148672.00;0.50;257.52;0.00;0.00;0.62;;;;;7.50;1.00;;;;;;2237129;61;1115;-85
2021/01/08 00:40:50;160717.00;0.54;278.27;0.00;0.00;0.62;;;;;7.90;1.00;;;;;;2245105;61;1097;-86
2021/01/08 00:43:26;120828.00;0.40;209.51;0.00;0.00;0.62;;;;;7.90;1.00;;;;;;2238531;61;1043;-86
2021/01/08 00:46:19;29666.00;0.10;52.00;0.00;0.00;0.62;;;;;8.10;1.00;;;;;;2251958;61;1440;-85
2021/01/08 00:49:05;0.00;0.00;0.62;0.00;0.00;0.62;;;;;8.40;1.00;;;;;;2252930;61;1104;-85
2021/01/08 00:51:40;50760.00;0.17;88.50;0.00;0.00;0.62;;;;;8.30;1.00;;;;;;2252894;61;1104;-85
2021/01/08 00:54:13;44273.00;0.15;77.28;0.00;0.00;0.62;;;;;8.30;1.00;;;;;;2253073;61;1924;-85
2021/01/08 00:56:46;20422.00;0.07;36.00;0.00;0.00;0.62;;;;;7.90;1.00;;;;;;2252183;61;1372;-86
2021/01/08 00:59:22;198918.00;0.66;344.06;0.00;0.00;0.62;;;;;7.60;1.00;;;;;;2252956;61;1050;-86
2021/01/08 01:01:49;400008.00;1.33;689.82;88840.00;0.30;154.30;;;;;7.70;1.00;;;;;;2243185;61;1126;-85
2021/01/08 01:04:27;173549.00;0.58;300.38;96266.00;0.32;167.13;;;;;7.40;1.00;;;;;;2252977;61;1127;-86
2021/01/08 01:07:07;383075.00;1.28;660.71;100728.00;0.34;174.83;;;;;7.30;1.00;;;;;;2241010;62;1500;-85
2021/01/08 01:09:43;130544968.00;435.15;90144528.00;80768.00;0.27;140.36;;;;;7.20;1.00;;;;;;2237835;62;1056;-87
2021/01/08 01:12:15;365606.00;1.22;630.68;88234.00;0.29;153.26;;;;;7.30;1.00;;;;;;2241090;62;1110;-85
2021/01/08 01:14:52;243099.00;0.81;420.08;94433.00;0.31;163.96;;;;;7.50;1.00;;;;;;2232981;62;948;-84
2021/01/08 01:17:35;17882.00;0.06;31.60;0.00;0.00;0.62;;;;;7.70;1.00;;;;;;2233453;62;1088;-85
2021/01/08 01:20:05;26573.00;0.09;46.65;0.00;0.00;0.62;;;;;7.90;1.00;;;;;;2233132;62;996;-85
2021/01/08 01:22:52;0.00;0.00;0.62;0.00;0.00;0.62;;;;;8.30;1.00;;;;;;2229912;62;1063;-86
2021/01/08 01:25:28;35551.00;0.12;62.19;0.00;0.00;0.62;;;;;8.20;1.00;;;;;;2235139;62;1450;-86
2021/01/08 01:28:04;0.00;0.00;0.62;0.00;0.00;0.62;;;;;8.30;1.00;;;;;;2233118;62;960;-85
2021/01/08 01:30:36;57933.00;0.19;100.90;0.00;0.00;0.62;;;;;8.10;1.00;;;;;;2233180;62;1159;-86
2021/01/08 01:33:47;157307.00;0.52;272.40;0.00;0.00;0.62;;;;;8.50;1.00;;;;;;2235554;62;2013;-86
2021/01/08 01:36:21;10736.00;0.04;19.22;0.00;0.00;0.62;;;;;8.80;1.00;;;;;;2233729;62;1493;-86
2021/01/08 01:39:01;36584.00;0.12;63.98;0.00;0.00;0.62;;;;;8.60;1.00;;;;;;2243646;61;1002;-84
2021/01/08 01:41:49;0.00;0.00;0.62;0.00;0.00;0.62;;;;;8.20;1.00;;;;;;2246422;61;1068;-85
2021/01/08 01:44:29;6646.00;0.02;12.14;0.00;0.00;0.62;;;;;7.60;1.00;;;;;;2248936;61;1002;-85
2021/01/08 01:47:12;107245.00;0.36;186.08;0.00;0.00;0.62;;;;;7.40;1.00;;;;;;2249496;61;1341;-85
2021/01/08 01:49:57;0.00;0.00;0.62;0.00;0.00;0.62;;;;;7.10;1.00;;;;;;2252768;61;966;-85
2021/01/08 01:52:37;6433.00;0.02;11.77;0.00;0.00;0.62;;;;;7.20;1.00;;;;;;2242941;61;2005;-85
2021/01/08 01:55:29;68001.00;0.23;118.31;0.00;0.00;0.62;;;;;7.10;1.00;;;;;;2246206;61;1382;-85
2021/01/08 01:58:18;36906.00;0.12;64.53;0.00;0.00;0.62;;;;;7.50;1.00;;;;;;2252837;61;1168;-85
2021/01/08 02:00:48;0.00;0.00;0.62;0.00;0.00;0.62;;;;;7.20;1.00;;;;;;2243021;61;1010;-86
2021/01/08 02:06:23;8440.00;0.03;15.25;0.00;0.00;0.62;;;;;6.70;1.00;;;;;;2244810;61;1384;-86
2021/01/08 02:09:13;;;;;;;;;;;;;;;;;;;;;
2021/01/08 02:12:18;25700.00;0.09;45.14;0.00;0.00;0.62;;;;;6.60;1.00;;;;;;2252511;61;1063;-85
2021/01/08 02:15:02;347813.00;1.16;600.10;80232.00;0.27;139.44;;;;;6.10;1.00;;;;;;2252821;61;1076;-85
2021/01/08 02:17:38;580806.00;1.94;1001.09;83505.00;0.28;145.09;;;;;5.90;1.00;;;;;;2242962;61;1225;-85
2021/01/08 02:20:22;562561.00;1.88;969.62;99540.00;0.33;172.78;;;;;5.90;1.00;;;;;;2252804;61;1015;-85
2021/01/08 02:23:37;514103.00;1.71;886.11;92074.00;0.31;159.89;;;;;5.90;1.00;;;;;;2242866;61;1106;-85
2021/01/08 02:26:29;281578.00;0.94;486.25;0.00;0.00;0.62;;;;;6.00;1.00;;;;;;2226523;62;1470;-85
2021/01/08 02:29:04;117980.00;0.39;204.60;11025.00;0.04;19.72;;;;;6.00;1.00;;;;;;2232793;62;1688;-85
2021/01/08 02:31:41;259276.00;0.86;447.90;0.00;0.00;0.62;;;;;6.20;1.00;;;;;;2233015;62;1192;-85
2021/01/08 02:34:28;414863.00;1.38;715.36;0.00;0.00;0.62;;;;;6.40;1.00;;;;;;2223338;62;2007;-85
2021/01/08 02:37:16;159067.00;0.53;275.43;0.00;0.00;0.62;;;;;6.30;1.00;;;;;;2226488;62;1509;-85
2021/01/08 02:39:50;0.00;0.00;0.62;0.00;0.00;0.62;;;;;6.30;1.00;;;;;;2226534;62;972;-85
2021/01/08 02:42:32;352685.00;1.18;608.48;0.00;0.00;0.62;;;;;6.10;1.00;;;;;;2227514;62;1038;-85
2021/01/08 02:45:15;323563.00;1.08;558.42;0.00;0.00;0.62;;;;;6.10;1.00;;;;;;2234301;61;1392;-85
2021/01/08 02:48:06;210423.00;0.70;363.86;0.00;0.00;0.62;;;;;6.50;1.00;;;;;;2240806;61;1153;-85
2021/01/08 02:50:36;98311.00;0.33;170.66;0.00;0.00;0.62;;;;;6.40;1.00;;;;;;2240830;61;1061;-85
2021/01/08 02:53:16;220797.00;0.74;381.71;0.00;0.00;0.62;;;;;6.30;1.00;;;;;;2234278;62;1994;-86
2021/01/08 02:55:52;74083.00;0.25;128.82;0.00;0.00;0.62;;;;;6.50;1.00;;;;;;2232836;62;1377;-85
2021/01/08 02:58:33;371399.00;1.24;640.64;0.00;0.00;0.62;;;;;6.40;1.00;;;;;;2232887;62;1161;-85
2021/01/08 03:01:08;218351.00;0.73;377.51;0.00;0.00;0.62;;;;;6.00;1.00;;;;;;2237560;61;1136;-85
2021/01/08 03:06:30;10723.00;0.04;19.20;0.00;0.00;0.62;;;;;6.30;1.00;;;;;;2251998;61;1385;-85
2021/01/08 03:09:10;144035.00;0.48;249.53;0.00;0.00;0.62;;;;;6.60;1.00;;;;;;2252110;61;1141;-85
2021/01/08 03:11:56;857610.00;2.86;1481.79;0.00;0.00;0.62;;;;;6.70;1.00;;;;;;2252365;61;1606;-86
2021/01/08 03:14:30;10575.00;0.04;18.95;0.00;0.00;0.62;;;;;7.10;1.00;;;;;;2255988;61;1993;-85
2021/01/08 03:17:02;41988.00;0.14;73.33;0.00;0.00;0.62;;;;;7.40;1.00;;;;;;2256976;61;1369;-85
2021/01/08 03:19:56;213431.00;0.71;369.04;55053.00;0.18;95.92;;;;;7.40;1.00;;;;;;2242886;61;988;-86
2021/01/08 03:22:35;68584.00;0.23;119.31;0.00;0.00;0.62;;;;;7.60;1.00;;;;;;2252563;61;1117;-87
2021/01/08 03:25:15;54731.00;0.18;95.37;0.00;0.00;0.62;;;;;7.40;1.00;;;;;;2252542;61;1328;-85
2021/01/08 03:27:45;83222.00;0.28;144.60;0.00;0.00;0.62;;;;;7.20;1.00;;;;;;2252527;61;1029;-86
2021/01/08 03:30:31;0.00;0.00;0.62;0.00;0.00;0.62;;;;;6.80;1.00;;;;;;2240609;61;1005;-85
2021/01/08 03:33:09;89520.00;0.30;155.48;0.00;0.00;0.62;;;;;6.90;1.00;;;;;;2237393;62;1920;-86
2021/01/08 03:35:41;0.00;0.00;0.62;0.00;0.00;0.62;;;;;6.90;1.00;;;;;;2240665;61;1337;-86
2021/01/08 03:38:11;0.00;0.00;0.62;0.00;0.00;0.62;;;;;7.20;1.00;;;;;;2241014;61;978;-85
2021/01/08 03:40:46;49134.00;0.16;85.69;0.00;0.00;0.62;;;;;7.30;1.00;;;;;;2238819;61;1129;-86
2021/01/08 03:43:19;70476.00;0.23;122.58;0.00;0.00;0.62;;;;;7.10;1.00;;;;;;2241372;61;1133;-85
2021/01/08 03:45:59;176147.00;0.59;304.85;0.00;0.00;0.62;;;;;7.10;1.00;;;;;;2248547;61;1330;-86
2021/01/08 03:51:19;0.00;0.00;0.62;0.00;0.00;0.62;;;;;6.40;1.00;;;;;;2248511;61;1051;-86
2021/01/08 03:54:15;;;;;;;;;;;;;;;;;;;;;
2021/01/08 03:59:59;6200.00;0.02;11.37;0.00;0.00;0.62;;;;;5.90;1.00;;;;;;2244486;61;1031;-85
2021/01/08 04:02:28;5005.00;0.02;9.29;0.00;0.00;0.62;;;;;6.10;1.00;;;;;;2244345;61;1049;-86
2021/01/08 04:05:14;17643.00;0.06;31.19;0.00;0.00;0.62;;;;;6.30;1.00;;;;;;2232639;62;1390;-85
2021/01/08 04:07:46;221272.00;0.74;382.53;24315.00;0.08;42.74;;;;;6.30;1.00;;;;;;2223072;62;1049;-85
2021/01/08 04:10:21;69586.00;0.23;121.05;0.00;0.00;0.62;;;;;6.40;1.00;;;;;;2223069;62;1019;-85
2021/01/08 04:12:54;3827.00;0.01;7.25;0.00;0.00;0.62;;;;;6.70;1.00;;;;;;2232716;62;1997;-85
2021/01/08 04:15:35;18311.00;0.06;32.35;0.00;0.00;0.62;;;;;6.80;1.00;;;;;;2234486;62;1342;-85
2021/01/08 04:18:12;13292.00;0.04;23.65;0.00;0.00;0.62;;;;;6.80;1.00;;;;;;2233362;62;1104;-86
2021/01/08 04:20:40;3372.00;0.01;6.46;0.00;0.00;0.62;;;;;6.60;1.00;;;;;;2236639;62;1140;-84
2021/01/08 04:23:16;60783.00;0.20;105.83;0.00;0.00;0.62;;;;;6.60;1.00;;;;;;2243417;61;1122;-85
2021/01/08 04:25:50;91868.00;0.31;159.53;0.00;0.00;0.62;;;;;6.70;1.00;;;;;;2248377;61;1387;-84
2021/01/08 04:28:34;324931.00;1.08;560.77;0.00;0.00;0.62;;;;;6.70;1.00;;;;;;2248428;61;1117;-85
2021/01/08 04:31:31;284123.00;0.95;490.63;6413.00;0.02;11.73;;;;;6.90;1.00;;;;;;2248399;61;1105;-85
2021/01/08 04:34:22;48202.00;0.16;84.08;0.00;0.00;0.62;;;;;7.10;1.00;;;;;;2245037;61;1914;-85
2021/01/08 04:36:56;48391.00;0.16;84.40;0.00;0.00;0.62;;;;;6.90;1.00;;;;;;2253368;61;1444;-86
2021/01/08 04:39:46;18598.00;0.06;32.84;0.00;0.00;0.62;;;;;6.60;1.00;;;;;;2256731;61;1141;-85
2021/01/08 04:42:42;0.00;0.00;0.62;0.00;0.00;0.62;;;;;6.60;1.00;;;;;;2256733;61;1093;-85
2021/01/08 04:45:27;39066.00;0.13;68.27;0.00;0.00;0.62;;;;;6.70;1.00;;;;;;2256713;61;1350;-85
2021/01/08 04:48:06;14598.00;0.05;25.91;0.00;0.00;0.62;;;;;7.00;1.00;;;;;;2253045;61;1105;-84
2021/01/08 04:50:39;11635.00;0.04;20.78;0.00;0.00;0.62;;;;;6.90;1.00;;;;;;2257126;61;1072;-85
2021/01/08 04:53:17;0.00;0.00;0.62;0.00;0.00;0.62;;;;;6.80;1.00;;;;;;2257385;61;1981;-85
2021/01/08 04:58:37;40457.00;0.13;70.68;0.00;0.00;0.62;;;;;7.00;1.00;;;;;;2257098;61;1110;-85
2021/01/08 05:01:23;0.00;0.00;0.62;0.00;0.00;0.62;;;;;7.00;1.00;;;;;;2257368;61;1136;-84
2021/01/08 05:03:53;20434.00;0.07;36.02;0.00;0.00;0.62;;;;;7.10;1.00;;;;;;2257015;61;1189;-84
2021/01/08 05:06:27;0.00;0.00;0.62;0.00;0.00;0.62;;;;;6.90;1.00;;;;;;2257345;61;1391;-85
2021/01/08 05:09:11;0.00;0.00;0.62;0.00;0.00;0.62;;;;;7.00;1.00;;;;;;2257418;61;1008;-85
2021/01/08 05:11:55;388703.00;1.30;670.39;80271.00;0.27;139.51;;;;;7.00;1.00;;;;;;2257431;61;1168;-86
2021/01/08 05:14:33;389420.00;1.30;671.62;98225.00;0.33;170.51;;;;;6.50;1.00;;;;;;2257261;61;1914;-85
2021/01/08 05:17:14;288706.00;0.96;498.50;85479.00;0.28;148.50;;;;;6.30;1.00;;;;;;2252839;61;1310;-85
2021/01/08 05:20:00;292083.00;0.97;504.31;86128.00;0.29;149.62;;;;;6.60;1.00;;;;;;2252978;61;1061;-84
2021/01/08 05:22:36;440408.00;1.47;759.28;95142.00;0.32;165.19;;;;;6.30;1.00;;;;;;2252920;61;1143;-85
2021/01/08 05:25:14;18833.00;0.06;33.25;0.00;0.00;0.62;;;;;6.50;1.00;;;;;;2244947;61;1504;-85
2021/01/08 05:27:44;50765.00;0.17;88.51;0.00;0.00;0.62;;;;;6.40;1.00;;;;;;2237061;61;991;-85
2021/01/08 05:30:19;17140.00;0.06;30.32;0.00;0.00;0.62;;;;;6.50;1.00;;;;;;2230612;61;1009;-85
2021/01/08 05:33:01;8541.00;0.03;15.42;0.00;0.00;0.62;;;;;6.60;1.00;;;;;;2237006;61;2015;-85
2021/01/08 05:35:39;43552.00;0.15;76.03;0.00;0.00;0.62;;;;;6.80;1.00;;;;;;2236099;61;1460;-85
2021/01/08 05:38:12;11473.00;0.04;20.50;0.00;0.00;0.62;;;;;6.30;1.00;;;;;;2245000;61;1028;-84
2021/01/08 05:40:53;76028.00;0.25;132.18;0.00;0.00;0.62;;;;;6.20;1.00;;;;;;2244959;61;1090;-84
2021/01/08 05:43:32;59431.00;0.20;103.49;0.00;0.00;0.62;;;;;6.20;1.00;;;;;;2248044;61;1023;-85
2021/01/08 05:46:15;29345.00;0.10;51.45;0.00;0.00;0.62;;;;;6.10;1.00;;;;;;2255569;61;1416;-85
2021/01/08 05:48:52;44923.00;0.15;78.41;0.00;0.00;0.62;;;;;6.00;1.00;;;;;;2257138;61;1044;-85
2021/01/08 05:51:26;16020.00;0.05;28.38;0.00;0.00;0.62;;;;;6.20;1.00;;;;;;2253556;61;1042;-85
2021/01/08 05:54:01;35437.00;0.12;61.99;0.00;0.00;0.62;;;;;6.30;1.00;;;;;;2257202;61;1924;-85
2021/01/08 05:56:41;0.00;0.00;0.62;0.00;0.00;0.62;;;;;6.50;1.00;;;;;;2256694;61;1495;-85
2021/01/08 06:02:21;0.00;0.00;0.62;0.00;0.00;0.62;;;;;6.70;1.00;;;;;;2255878;61;1079;-85
2021/01/08 06:05:01;18076.00;0.06;31.94;0.00;0.00;0.62;;;;;6.90;1.00;;;;;;2256833;61;1116;-85
2021/01/08 06:07:54;0.00;0.00;0.62;0.00;0.00;0.62;;;;;7.00;1.00;;;;;;2252726;61;1056;-86
2021/01/08 06:13:16;466661.00;1.56;804.44;88848.00;0.30;154.32;;;;;5.80;1.00;;;;;;2240861;62;1925;-83
2021/01/08 06:15:48;237788.00;0.79;410.95;88719.00;0.30;154.10;;;;;5.20;1.00;;;;;;2240868;62;1304;-85
2021/01/08 06:18:23;0.00;0.00;0.62;0.00;0.00;0.62;;;;;5.30;1.00;;;;;;2240925;62;1036;-85
2021/01/08 06:21:17;18484.00;0.06;32.64;0.00;0.00;0.62;;;;;5.30;1.00;;;;;;2240930;62;1059;-84
2021/01/08 06:24:02;287417.00;0.96;496.29;90866.00;0.30;157.80;;;;;5.50;1.00;;;;;;2225113;62;1005;-85
2021/01/08 06:26:40;341246.00;1.14;588.82;92856.00;0.31;161.24;;;;;5.60;1.00;;;;;;2232209;62;1444;-86
2021/01/08 06:29:30;198658.00;0.66;343.61;93560.00;0.31;162.45;;;;;5.80;1.00;;;;;;2223379;62;1035;-85
2021/01/08 06:32:17;407791.00;1.36;703.20;97903.00;0.33;169.95;;;;;5.40;1.00;;;;;;2226526;62;1027;-85
2021/01/08 06:34:50;305083.00;1.02;526.66;90905.00;0.30;157.87;;;;;5.30;1.00;;;;;;2232835;62;2000;-85
2021/01/08 06:37:32;37805.00;0.13;66.09;0.00;0.00;0.62;;;;;5.30;1.00;;;;;;2226404;62;1605;-84
2021/01/08 06:40:17;245.00;0.00;1.04;0.00;0.00;0.62;;;;;5.10;1.00;;;;;;2225124;62;1092;-84
2021/01/08 06:43:13;78613.00;0.26;136.64;0.00;0.00;0.62;;;;;5.30;1.00;;;;;;2235311;62;1080;-85
2021/01/08 06:45:50;176638.00;0.59;305.70;105286.00;0.35;182.70;;;;;5.20;1.00;;;;;;2232943;62;1333;-84
2021/01/08 06:48:39;255148.00;0.85;440.80;85498.00;0.28;148.53;;;;;5.40;1.00;;;;;;2229666;62;1181;-85
2021/01/08 06:51:14;364248.00;1.21;628.35;89797.00;0.30;155.96;;;;;5.70;1.00;;;;;;2236337;62;1059;-85
2021/01/08 06:53:55;346190.00;1.15;597.31;98274.00;0.33;170.59;;;;;6.50;1.00;;;;;;2236665;62;2018;-85
2021/01/08 06:56:53;652089.00;2.17;1124.25;90526.00;0.30;157.22;;;;;6.90;1.00;;;;;;2236821;62;1376;-85
2021/01/08 06:59:27;190760.00;0.64;330.02;0.00;0.00;0.62;;;;;6.80;1.00;;;;;;2244772;61;1173;-84
2021/01/08 07:02:16;342155.00;1.14;590.38;0.00;0.00;0.62;;;;;6.50;1.00;;;;;;2256886;61;1083;-84
2021/01/08 07:04:46;235753.00;0.79;407.45;0.00;0.00;0.62;;;;;6.60;1.00;;;;;;2256994;61;1020;-84
2021/01/08 07:07:33;350698.00;1.17;605.06;0.00;0.00;0.62;;;;;6.60;1.00;;;;;;2252536;61;1522;-84
2021/01/08 07:10:19;288370.00;0.96;497.93;88916.00;0.30;154.44;;;;;6.60;1.00;;;;;;2236749;61;1128;-84
2021/01/08 07:13:04;300976.00;1.00;519.60;95830.00;0.32;166.37;;;;;6.90;1.00;;;;;;2248398;61;961;-85
2021/01/08 07:15:45;195619.00;0.65;338.38;80748.00;0.27;140.33;;;;;7.20;1.00;;;;;;2248551;61;1344;-84
2021/01/08 07:18:26;421384.00;1.40;726.57;130945.00;0.44;226.96;;;;;7.20;1.00;;;;;;2238813;61;1039;-84
2021/01/08 07:21:01;387413.00;1.29;668.17;89479.00;0.30;155.41;;;;;7.00;1.00;;;;;;2248632;61;1075;-84
2021/01/08 07:23:38;171637.00;0.57;297.09;88014.00;0.29;152.88;;;;;6.80;1.00;;;;;;2238761;61;990;-84
2021/01/08 07:26:13;341973.00;1.14;590.06;91649.00;0.31;159.15;;;;;6.50;1.00;;;;;;2238760;61;1386;-85
2021/01/08 07:28:55;274318.00;0.91;473.77;92246.00;0.31;160.19;;;;;6.30;1.00;;;;;;2248585;61;1190;-84
2021/01/08 07:31:38;172241.00;0.57;298.13;90732.00;0.30;157.57;;;;;6.30;1.00;;;;;;2242495;61;974;-85
2021/01/08 07:34:22;266939.00;0.89;461.08;82505.00;0.28;143.36;;;;;6.30;1.00;;;;;;2248472;61;1932;-84
2021/01/08 07:36:55;472752.00;1.58;814.92;88443.00;0.29;153.62;;;;;6.20;1.00;;;;;;2248509;61;1721;-85
2021/01/08 07:39:47;13468.00;0.04;23.96;0.00;0.00;0.62;;;;;6.30;1.00;;;;;;2241971;61;1000;-85
2021/01/08 07:42:55;239935.00;0.80;414.64;53747.00;0.18;93.67;;;;;6.40;1.00;;;;;;2248518;61;1117;-85
2021/01/08 07:45:43;280445.00;0.93;484.30;0.00;0.00;0.62;;;;;6.30;1.00;;;;;;2224954;62;1343;-85
2021/01/08 07:48:24;136865.00;0.46;237.17;0.00;0.00;0.62;;;;;6.70;1.00;;;;;;2221695;62;1029;-85
2021/01/08 07:50:58;67355.00;0.22;117.19;0.00;0.00;0.62;;;;;6.50;1.00;;;;;;2221075;62;1002;-85
2021/01/08 07:54:00;59058.00;0.20;102.85;0.00;0.00;0.62;;;;;6.20;1.00;;;;;;2221069;62;1920;-84
2021/01/08 07:56:33;80277.00;0.27;139.52;0.00;0.00;0.62;;;;;5.30;1.00;;;;;;2227031;62;1427;-84
2021/01/08 07:59:06;9290.00;0.03;16.72;0.00;0.00;0.62;;;;;4.80;1.00;;;;;;2224863;62;941;-84
2021/01/08 08:01:35;50675.00;0.17;88.35;0.00;0.00;0.62;;;;;4.70;1.00;;;;;;2224908;62;1036;-84
2021/01/08 08:04:08;160392.00;0.53;277.71;32154.00;0.11;56.31;;;;;4.90;1.00;;;;;;2231714;62;938;-85
2021/01/08 08:06:39;72137.00;0.24;125.45;0.00;0.00;0.62;;;;;5.10;1.00;;;;;;2236575;62;1421;-84
2021/01/08 08:09:13;17958.00;0.06;31.73;0.00;0.00;0.62;;;;;5.60;1.00;;;;;;2230867;62;1002;-84
2021/01/08 08:11:50;61467.00;0.20;107.01;0.00;0.00;0.62;;;;;5.70;1.00;;;;;;2240587;62;1019;-84
2021/01/08 08:14:24;0.00;0.00;0.62;0.00;0.00;0.62;;;;;5.40;1.00;;;;;;2234114;62;2002;-84
2021/01/08 08:16:54;28186.00;0.09;49.44;0.00;0.00;0.62;;;;;5.50;1.00;;;;;;2243967;61;1404;-84
2021/01/08 08:19:33;19502.00;0.07;34.41;0.00;0.00;0.62;;;;;5.70;1.00;;;;;;2248441;61;1020;-84
2021/01/08 08:22:08;13126.00;0.04;23.36;0.00;0.00;0.62;;;;;5.90;1.00;;;;;;2254782;61;1117;-84
2021/01/08 08:24:50;129482.00;0.43;224.44;59532.00;0.20;103.67;;;;;6.00;1.00;;;;;;2257216;61;845;-86
2021/01/08 08:27:19;17647.00;0.06;31.20;0.00;0.00;0.62;;;;;5.90;1.00;;;;;;2253806;61;1603;-85
2021/01/08 08:29:46;0.00;0.00;0.62;0.00;0.00;0.62;;;;;6.10;1.00;;;;;;2257078;61;987;-84
2021/01/08 08:32:35;67482.00;0.22;117.41;0.00;0.00;0.62;;;;;6.40;1.00;;;;;;2257500;61;1077;-85
2021/01/08 08:35:12;0.00;0.00;0.62;0.00;0.00;0.62;;;;;6.60;1.00;;;;;;2257411;61;2011;-87
2021/01/08 08:37:49;14305.00;0.05;25.41;0.00;0.00;0.62;;;;;6.70;1.00;;;;;;2253003;61;997;-85
2021/01/08 08:40:28;71010.00;0.24;123.51;0.00;0.00;0.62;;;;;6.90;1.00;;;;;;2252974;61;1130;-85
2021/01/08 08:42:57;233342.00;0.78;403.30;0.00;0.00;0.62;;;;;6.70;1.00;;;;;;2253077;61;1047;-85
2021/01/08 08:45:34;251387.00;0.84;434.34;0.00;0.00;0.62;;;;;6.60;1.00;;;;;;2252988;61;1400;-86
2021/01/08 08:48:23;247178.00;0.82;427.10;0.00;0.00;0.62;;;;;6.40;1.00;;;;;;2253037;61;1056;-85
2021/01/08 08:50:57;226237.00;0.75;391.07;0.00;0.00;0.62;;;;;6.30;1.00;;;;;;2243208;61;1033;-86
2021/01/08 08:53:29;287925.00;0.96;497.16;0.00;0.00;0.62;;;;;6.40;1.00;;;;;;2241040;62;1999;-86
2021/01/08 08:56:13;440426.00;1.47;759.32;87356.00;0.29;151.74;;;;;6.20;1.00;;;;;;2234149;62;1375;-85
2021/01/08 08:59:08;370261.00;1.23;638.69;102204.00;0.34;177.38;;;;;5.90;1.00;;;;;;2237205;62;1124;-86
2021/01/08 09:01:50;71596.00;0.24;124.52;0.00;0.00;0.62;;;;;6.00;1.00;;;;;;2235684;62;1183;-83
2021/01/08 09:04:31;53347.00;0.18;92.97;0.00;0.00;0.62;;;;;5.70;1.00;;;;;;2236741;62;1121;-85
2021/01/08 09:07:07;67672.00;0.23;117.74;0.00;0.00;0.62;;;;;5.70;1.00;;;;;;2236947;62;1386;-85
2021/01/08 09:10:10;68570.00;0.23;119.29;0.00;0.00;0.62;;;;;5.30;1.00;;;;;;2237138;62;1771;-85
2021/01/08 09:13:01;17756.00;0.06;31.38;0.00;0.00;0.62;;;;;5.50;1.00;;;;;;2248592;61;1138;-86
2021/01/08 09:15:34;9814.00;0.03;17.63;0.00;0.00;0.62;;;;;5.90;1.00;;;;;;2257263;61;1391;-85
2021/01/08 09:18:17;24178.00;0.08;42.50;0.00;0.00;0.62;;;;;5.90;1.00;;;;;;2257341;61;1144;-86
2021/01/08 09:20:55;48362.00;0.16;84.35;0.00;0.00;0.62;;;;;5.90;1.00;;;;;;2257295;61;1108;-85
2021/01/08 09:23:34;299729.00;1.00;517.45;0.00;0.00;0.62;;;;;6.40;1.00;;;;;;2257301;61;1119;-86
2021/01/08 09:26:17;486655.00;1.62;838.85;81158.00;0.27;141.04;;;;;6.50;1.00;;;;;;2257233;61;1420;-85
2021/01/08 09:28:55;464218.00;1.55;800.24;0.00;0.00;0.62;;;;;6.40;1.00;;;;;;2252781;61;942;-86
2021/01/08 09:31:43;281356.00;0.94;485.87;0.00;0.00;0.62;;;;;6.00;1.00;;;;;;2242958;61;1014;-87
2021/01/08 09:34:15;185675.00;0.62;321.26;0.00;0.00;0.62;;;;;5.90;1.00;;;;;;2252832;61;1912;-87
2021/01/08 09:36:56;297601.00;0.99;513.80;0.00;0.00;0.62;;;;;5.60;1.00;;;;;;2252666;61;1518;-86
2021/01/08 09:39:39;256721.00;0.86;443.51;0.00;0.00;0.62;;;;;5.60;1.00;;;;;;2243010;61;984;-86
2021/01/08 09:42:15;188463.00;0.63;326.06;0.00;0.00;0.62;;;;;6.00;1.00;;;;;;2252824;61;1275;-86
2021/01/08 09:44:50;140157.00;0.47;242.84;0.00;0.00;0.62;;;;;6.10;1.00;;;;;;2252846;61;1048;-86
2021/01/08 09:47:33;93271.00;0.31;161.96;0.00;0.00;0.62;;;;;6.40;1.00;;;;;;2256085;61;1509;-85
2021/01/08 09:50:12;67640.00;0.23;117.68;0.00;0.00;0.62;;;;;6.40;1.00;;;;;;2257202;61;1219;-87
2021/01/08 09:52:50;24503.00;0.08;43.07;0.00;0.00;0.62;;;;;6.30;1.00;;;;;;2250251;61;1043;-86
2021/01/08 09:55:31;13317.00;0.04;23.70;0.00;0.00;0.62;;;;;6.60;1.00;;;;;;2256697;61;1937;-86
2021/01/08 09:58:09;40231.00;0.13;70.29;0.00;0.00;0.62;;;;;6.20;1.00;;;;;;2256784;61;1021;-86
2021/01/08 10:00:49;34972.00;0.12;61.19;0.00;0.00;0.62;;;;;6.00;1.00;;;;;;2257224;61;926;-86
2021/01/08 10:03:24;0.00;0.00;0.62;0.00;0.00;0.62;;;;;6.00;1.00;;;;;;2253520;61;1066;-86
2021/01/08 10:06:10;0.00;0.00;0.62;0.00;0.00;0.62;;;;;6.40;1.00;;;;;;2253319;61;1497;-86
2021/01/08 10:11:30;0.00;0.00;0.62;0.00;0.00;0.62;;;;;6.20;1.00;;;;;;2240875;62;1071;-86
2021/01/08 10:14:08;1127.00;0.00;2.57;0.00;0.00;0.62;;;;;6.20;1.00;;;;;;2229049;62;1936;-86
2021/01/08 10:16:47;19544.00;0.07;34.48;0.00;0.00;0.62;;;;;6.40;1.00;;;;;;2229021;62;1345;-86
2021/01/08 10:19:16;40233.00;0.13;70.29;0.00;0.00;0.62;;;;;6.60;1.00;;;;;;2229093;62;1002;-86
2021/01/08 10:21:46;35357.00;0.12;61.85;0.00;0.00;0.62;;;;;6.60;1.00;;;;;;2229027;62;997;-86
2021/01/08 10:24:26;40208.00;0.13;70.25;0.00;0.00;0.62;;;;;6.70;1.00;;;;;;2225142;62;949;-86
2021/01/08 10:27:05;157035.00;0.52;271.93;0.00;0.00;0.62;;;;;6.30;1.00;;;;;;2221893;62;1460;-86
2021/01/08 10:29:37;89501.00;0.30;155.45;0.00;0.00;0.62;;;;;6.40;1.00;;;;;;2218768;62;1067;-86
2021/01/08 10:32:13;65602.00;0.22;114.16;0.00;0.00;0.62;;;;;6.30;1.00;;;;;;2222941;62;1131;-85
2021/01/08 10:34:42;3693.00;0.01;7.02;0.00;0.00;0.62;;;;;6.40;1.00;;;;;;2222209;62;1924;-87
2021/01/08 10:37:22;12867.00;0.04;22.92;0.00;0.00;0.62;;;;;6.20;1.00;;;;;;2229625;62;1438;-86
2021/01/08 10:40:07;23794.00;0.08;41.84;0.00;0.00;0.62;;;;;6.60;1.00;;;;;;2234991;62;1051;-86
2021/01/08 10:42:57;26905.00;0.09;47.23;0.00;0.00;0.62;;;;;7.20;1.00;;;;;;2244362;61;1730;-86
2021/01/08 10:45:39;0.00;0.00;0.62;0.00;0.00;0.62;;;;;6.90;1.00;;;;;;2248551;61;1340;-86
2021/01/08 10:48:21;12147.00;0.04;21.67;0.00;0.00;0.62;;;;;6.90;1.00;;;;;;2238695;61;1045;-85
2021/01/08 10:51:04;0.00;0.00;0.62;0.00;0.00;0.62;;;;;7.00;1.00;;;;;;2248627;61;1099;-86
2021/01/08 10:53:32;14887.00;0.05;26.41;0.00;0.00;0.62;;;;;7.20;1.00;;;;;;2248565;61;1920;-87
2021/01/08 10:56:03;18653.00;0.06;32.94;0.00;0.00;0.62;;;;;7.80;1.00;;;;;;2248436;61;1786;-87
2021/01/08 10:58:39;0.00;0.00;0.62;0.00;0.00;0.62;;;;;8.20;1.00;;;;;;2250489;61;1177;-87
2021/01/08 11:01:19;16110.00;0.05;28.53;0.00;0.00;0.62;;;;;7.90;1.00;;;;;;2249971;61;1129;-86
2021/01/08 11:03:50;0.00;0.00;0.62;0.00;0.00;0.62;;;;;7.80;1.00;;;;;;2256841;61;1024;-87
2021/01/08 11:06:24;0.00;0.00;0.62;0.00;0.00;0.62;;;;;8.10;1.00;;;;;;2256967;61;1486;-86
2021/01/08 11:08:57;26107.00;0.09;45.84;0.00;0.00;0.62;;;;;8.10;1.00;;;;;;2257025;61;1097;-86
2021/01/08 11:11:32;142796.00;0.48;247.39;0.00;0.00;0.62;;;;;8.10;1.00;;;;;;2256953;61;1731;-86
2021/01/08 11:14:17;1713.00;0.01;3.59;0.00;0.00;0.62;;;;;8.60;1.00;;;;;;2253276;61;1912;-86
2021/01/08 11:16:47;29461.00;0.10;51.65;0.00;0.00;0.62;;;;;8.50;1.00;;;;;;2257001;61;1463;-86
2021/01/08 11:19:19;0.00;0.00;0.62;0.00;0.00;0.62;;;;;8.20;1.00;;;;;;2256943;61;1073;-86
2021/01/08 11:21:55;33093.00;0.11;57.94;0.00;0.00;0.62;;;;;8.00;1.00;;;;;;2256531;61;1000;-86
2021/01/08 11:24:28;10484.00;0.03;18.79;0.00;0.00;0.62;;;;;7.70;1.00;;;;;;2256938;61;1144;-86
2021/01/08 11:26:55;247879.00;0.83;428.30;0.00;0.00;0.62;;;;;8.00;1.00;;;;;;2256819;61;1362;-86
2021/01/08 11:29:26;28371.00;0.09;49.76;0.00;0.00;0.62;;;;;7.90;1.00;;;;;;2256704;61;1055;-87
2021/01/08 11:31:56;0.00;0.00;0.62;0.00;0.00;0.62;;;;;7.80;1.00;;;;;;2253210;61;1141;-86